createdAt,value
2023-05-06T00:01:44.223Z,26.70
2023-05-06T00:04:12.580Z,27.52
2023-05-06T00:06:40.135Z,24.30
2023-05-06T00:09:07.650Z,25.55
2023-05-06T00:11:35.303Z,24.00
2023-05-06T00:14:02.903Z,24.63
2023-05-06T00:16:30.536Z,24.23
2023-05-06T00:18:58.267Z,21.90
2023-05-06T00:21:27.174Z,22.70
2023-05-06T00:23:54.670Z,25.02
2023-05-06T00:26:22.242Z,22.83
2023-05-06T00:28:49.838Z,23.63
2023-05-06T00:31:17.429Z,23.23
2023-05-06T00:33:45.106Z,24.55
2023-05-06T00:36:12.812Z,24.30
2023-05-06T00:38:40.770Z,23.70
2023-05-06T00:41:08.843Z,22.17
2023-05-06T00:43:36.430Z,26.30
2023-05-06T00:46:05.402Z,24.80
2023-05-06T00:48:33.132Z,20.13
2023-05-06T00:51:01.713Z,25.60
2023-05-06T00:53:29.212Z,20.23
2023-05-06T00:55:57.594Z,21.73
2023-05-06T00:58:25.108Z,16.85
2023-05-06T01:00:53.553Z,20.75
2023-05-06T01:03:21.293Z,18.33
2023-05-06T01:06:14.172Z,23.80
2023-05-06T01:08:42.217Z,21.50
2023-05-06T01:11:44.857Z,20.73
2023-05-06T01:14:28.757Z,23.73
2023-05-06T01:17:03.392Z,23.65
2023-05-06T01:19:59.739Z,23.63
2023-05-06T01:22:29.274Z,23.80
2023-05-06T01:24:56.851Z,23.75
2023-05-06T01:27:24.947Z,24.15
2023-05-06T01:29:52.785Z,25.92
2023-05-06T01:32:23.162Z,27.58
2023-05-06T01:35:03.461Z,26.30
2023-05-06T01:38:12.270Z,27.98
2023-05-06T01:40:41.666Z,31.45
2023-05-06T01:43:12.511Z,30.00
2023-05-06T01:45:41.641Z,27.27
2023-05-06T01:48:09.886Z,30.70
2023-05-06T01:50:37.998Z,32.60
2023-05-06T01:53:05.595Z,27.67
2023-05-06T01:55:33.154Z,30.60
2023-05-06T01:58:00.728Z,33.00
2023-05-06T02:00:28.404Z,28.00
2023-05-06T02:02:56.321Z,30.05
2023-05-06T02:05:24.201Z,26.13
2023-05-06T02:07:56.022Z,26.13
2023-05-06T02:10:23.553Z,23.27
2023-05-06T02:12:58.636Z,22.03
2023-05-06T02:15:26.234Z,26.23
2023-05-06T02:17:53.941Z,23.85
2023-05-06T02:20:21.687Z,21.65
2023-05-06T02:22:49.197Z,24.65
2023-05-06T02:25:16.913Z,23.17
2023-05-06T02:27:46.246Z,21.92
2023-05-06T02:30:14.719Z,23.33
2023-05-06T02:32:42.281Z,25.23
2023-05-06T02:35:10.294Z,20.38
2023-05-06T02:37:38.098Z,24.50
2023-05-06T02:40:06.715Z,25.08
2023-05-06T02:42:35.893Z,23.58
2023-05-06T02:45:10.141Z,25.42
2023-05-06T02:47:38.031Z,25.20
2023-05-06T02:50:06.062Z,23.73
2023-05-06T02:52:34.638Z,24.23
2023-05-06T02:55:02.625Z,28.60
2023-05-06T02:57:30.385Z,26.70
2023-05-06T02:59:57.978Z,24.05
2023-05-06T03:02:25.764Z,20.90
2023-05-06T03:04:53.366Z,21.23
2023-05-06T03:07:21.043Z,19.60
2023-05-06T03:09:48.850Z,18.25
2023-05-06T03:12:16.587Z,19.23
2023-05-06T03:14:44.127Z,17.87
2023-05-06T03:17:12.397Z,16.30
2023-05-06T03:19:40.494Z,19.27
2023-05-06T03:22:09.893Z,16.63
2023-05-06T03:24:42.138Z,15.40
2023-05-06T03:27:09.732Z,17.57
2023-05-06T03:29:37.534Z,15.95
2023-05-06T03:32:06.482Z,13.88
2023-05-06T03:34:40.341Z,15.80
2023-05-06T03:37:10.010Z,15.35
2023-05-06T03:39:39.100Z,16.33
2023-05-06T03:42:09.234Z,14.05
2023-05-06T03:44:38.062Z,12.30
2023-05-06T03:47:05.738Z,12.40
2023-05-06T03:49:34.531Z,11.27
2023-05-06T03:52:02.655Z,14.77
2023-05-06T03:54:30.959Z,12.32
2023-05-06T03:56:58.591Z,11.85
2023-05-06T03:59:26.763Z,10.25
2023-05-06T04:01:56.394Z,11.00
2023-05-06T04:04:25.332Z,8.33
2023-05-06T04:06:53.011Z,10.07
2023-05-06T04:09:20.515Z,9.80
2023-05-06T04:11:49.263Z,11.02
2023-05-06T04:14:18.411Z,7.93
2023-05-06T04:16:46.264Z,8.50
2023-05-06T04:19:14.541Z,8.43
2023-05-06T04:21:42.259Z,9.32
2023-05-06T04:24:13.823Z,7.70
2023-05-06T04:26:42.511Z,7.85
2023-05-06T04:29:10.378Z,7.03
2023-05-06T04:31:46.437Z,7.57
2023-05-06T04:34:16.705Z,7.63
2023-05-06T04:36:47.783Z,7.05
2023-05-06T04:39:26.288Z,6.47
2023-05-06T04:41:54.572Z,7.27
2023-05-06T04:44:29.565Z,7.07
2023-05-06T04:46:57.845Z,7.78
2023-05-06T04:49:25.998Z,9.10
2023-05-06T04:51:54.176Z,7.82
2023-05-06T04:54:22.156Z,7.87
2023-05-06T04:56:49.805Z,8.93
2023-05-06T04:59:19.281Z,8.80
2023-05-06T05:01:47.052Z,8.57
2023-05-06T05:04:14.796Z,8.95
2023-05-06T05:06:42.510Z,8.77
2023-05-06T05:09:10.824Z,10.50
2023-05-06T05:11:41.458Z,10.93
2023-05-06T05:14:09.289Z,10.63
2023-05-06T05:16:37.887Z,12.98
2023-05-06T05:19:08.874Z,11.50
2023-05-06T05:21:37.073Z,13.40
2023-05-06T05:24:05.841Z,11.30
2023-05-06T05:26:33.914Z,12.52
2023-05-06T05:29:01.743Z,13.02
2023-05-06T05:31:31.428Z,12.97
2023-05-06T05:34:00.260Z,13.95
2023-05-06T05:36:28.398Z,14.82
2023-05-06T05:38:58.721Z,15.82
2023-05-06T05:41:28.237Z,16.70
2023-05-06T05:43:56.534Z,16.57
2023-05-06T05:46:24.768Z,18.23
2023-05-06T05:48:52.893Z,15.32
2023-05-06T05:51:22.594Z,18.00
2023-05-06T05:53:52.208Z,15.40
2023-05-06T05:56:21.776Z,17.87
2023-05-06T05:58:50.086Z,17.08
2023-05-06T06:01:18.074Z,17.02
2023-05-06T06:03:47.505Z,16.40
2023-05-06T06:06:15.230Z,14.85
2023-05-06T06:08:43.052Z,14.40
2023-05-06T06:11:12.053Z,14.45
2023-05-06T06:13:41.720Z,13.68
2023-05-06T06:16:09.750Z,16.38
2023-05-06T06:18:37.343Z,14.43
2023-05-06T06:21:05.069Z,13.77
2023-05-06T06:23:32.688Z,12.43
2023-05-06T06:26:00.407Z,13.20
2023-05-06T06:28:27.940Z,13.27
2023-05-06T06:30:55.932Z,13.30
2023-05-06T06:33:23.505Z,13.97
2023-05-06T06:35:51.519Z,14.10
2023-05-06T06:38:19.069Z,12.32
2023-05-06T06:40:46.574Z,13.55
2023-05-06T06:43:14.136Z,12.10
2023-05-06T06:45:56.971Z,12.07
2023-05-06T06:48:24.610Z,13.07
2023-05-06T06:50:52.240Z,16.48
2023-05-06T06:53:20.591Z,13.82
2023-05-06T06:55:48.118Z,11.98
2023-05-06T06:58:15.654Z,14.53
2023-05-06T07:00:44.221Z,12.00
2023-05-06T07:03:11.739Z,13.32
2023-05-06T07:05:48.156Z,12.77
2023-05-06T07:08:17.306Z,11.80
2023-05-06T07:10:45.311Z,11.63
2023-05-06T07:13:12.953Z,12.77
2023-05-06T07:15:40.810Z,12.70
2023-05-06T07:18:08.509Z,12.38
2023-05-06T07:20:36.101Z,11.57
2023-05-06T07:23:03.722Z,12.10
2023-05-06T07:25:31.660Z,13.05
2023-05-06T07:27:59.327Z,15.05
2023-05-06T07:30:27.052Z,13.68
2023-05-06T07:32:54.716Z,14.95
2023-05-06T07:35:22.238Z,13.93
2023-05-06T07:37:50.082Z,12.65
2023-05-06T07:40:17.615Z,12.13
2023-05-06T07:42:45.180Z,12.77
2023-05-06T07:45:12.953Z,13.30
2023-05-06T07:47:41.088Z,12.40
2023-05-06T07:50:09.072Z,13.98
2023-05-06T07:52:36.891Z,13.02
2023-05-06T07:55:05.106Z,15.43
2023-05-06T07:57:32.671Z,15.32
2023-05-06T08:00:00.251Z,13.97
2023-05-06T08:02:28.156Z,13.73
2023-05-06T08:04:55.934Z,14.93
2023-05-06T08:07:23.602Z,11.65
2023-05-06T08:09:51.250Z,14.00
2023-05-06T08:12:18.762Z,12.50
2023-05-06T08:14:46.721Z,9.95
2023-05-06T08:17:14.306Z,10.38
2023-05-06T08:19:41.893Z,11.68
2023-05-06T08:22:09.449Z,12.43
2023-05-06T08:24:37.014Z,11.67
2023-05-06T08:27:04.730Z,10.40
2023-05-06T08:29:32.398Z,10.88
2023-05-06T08:32:00.091Z,14.73
2023-05-06T08:34:27.735Z,10.82
2023-05-06T08:36:56.265Z,11.67
2023-05-06T08:39:23.895Z,9.63
2023-05-06T08:41:54.499Z,9.65
2023-05-06T08:44:24.930Z,11.50
2023-05-06T08:46:52.741Z,10.52
2023-05-06T08:49:21.150Z,10.20
2023-05-06T08:51:54.538Z,10.02
2023-05-06T08:54:26.113Z,10.23
2023-05-06T08:56:56.429Z,12.70
2023-05-06T08:59:25.304Z,10.32
2023-05-06T09:01:53.513Z,11.77
2023-05-06T09:04:21.520Z,11.45
2023-05-06T09:06:49.074Z,10.23
2023-05-06T09:09:16.893Z,10.85
2023-05-06T09:11:44.490Z,9.80
2023-05-06T09:14:13.292Z,10.30
2023-05-06T09:16:43.665Z,9.60
2023-05-06T09:19:12.370Z,9.32
2023-05-06T09:21:43.619Z,11.27
2023-05-06T09:24:13.042Z,10.18
2023-05-06T09:26:42.246Z,9.00
2023-05-06T09:29:10.009Z,12.60
2023-05-06T09:31:47.774Z,12.05
2023-05-06T09:34:17.515Z,11.38
2023-05-06T09:36:45.448Z,12.85
2023-05-06T09:39:12.992Z,12.23
2023-05-06T09:41:40.799Z,12.95
2023-05-06T09:44:08.634Z,13.23
2023-05-06T09:46:36.687Z,13.20
2023-05-06T09:49:04.897Z,11.82
2023-05-06T09:51:33.032Z,13.63
2023-05-06T09:54:01.222Z,13.45
2023-05-06T09:56:30.865Z,12.73
2023-05-06T09:59:01.462Z,16.15
2023-05-06T10:01:36.793Z,12.63
2023-05-06T10:04:09.046Z,12.73
2023-05-06T10:06:39.898Z,9.23
2023-05-06T10:09:09.233Z,11.13
2023-05-06T10:11:37.048Z,10.75
2023-05-06T10:14:05.345Z,8.30
2023-05-06T10:16:36.276Z,8.63
2023-05-06T10:19:06.825Z,7.93
2023-05-06T10:21:39.525Z,8.82
2023-05-06T10:24:11.497Z,7.18
2023-05-06T10:26:40.982Z,6.90
2023-05-06T10:29:11.624Z,6.20
2023-05-06T10:31:44.747Z,7.00
2023-05-06T10:34:51.230Z,6.43
2023-05-06T10:37:20.044Z,6.53
2023-05-06T10:39:48.253Z,6.72
2023-05-06T10:46:30.279Z,7.15
2023-05-06T10:49:04.476Z,8.23
2023-05-06T10:51:33.485Z,7.55
2023-05-06T10:54:26.248Z,7.05
2023-05-06T10:56:54.185Z,7.90
2023-05-06T10:59:24.758Z,6.82
2023-05-06T11:02:07.660Z,9.20
2023-05-06T11:04:35.386Z,9.40
2023-05-06T11:07:14.441Z,7.75
2023-05-06T11:09:59.413Z,8.37
2023-05-06T11:12:46.120Z,10.85
2023-05-06T11:15:38.730Z,9.70
2023-05-06T11:18:24.454Z,11.48
2023-05-06T11:21:05.111Z,12.02
2023-05-06T11:23:42.189Z,10.50
2023-05-06T11:26:10.939Z,12.90
2023-05-06T11:28:39.376Z,10.73
2023-05-06T11:31:08.410Z,11.85
2023-05-06T11:33:47.145Z,11.00
2023-05-06T11:36:20.054Z,10.60
2023-05-06T11:38:49.577Z,12.18
2023-05-06T11:41:17.573Z,10.93
2023-05-06T11:43:52.350Z,10.63
2023-05-06T11:46:21.664Z,11.57
2023-05-06T11:48:50.874Z,10.63
2023-05-06T11:51:25.187Z,10.75
2023-05-06T11:54:07.108Z,14.00
2023-05-06T11:56:49.212Z,14.10
2023-05-06T11:59:18.630Z,14.57
2023-05-06T12:01:46.567Z,13.17
2023-05-06T12:04:14.265Z,14.00
2023-05-06T12:06:41.969Z,16.88
2023-05-06T12:09:12.336Z,15.60
2023-05-06T12:11:42.093Z,15.20
2023-05-06T12:14:11.588Z,14.43
2023-05-06T12:16:39.510Z,15.70
2023-05-06T12:19:07.607Z,16.80
2023-05-06T12:21:38.966Z,16.85
2023-05-06T12:24:07.047Z,19.55
2023-05-06T12:26:48.554Z,20.63
2023-05-06T12:29:17.550Z,17.65
2023-05-06T12:31:49.788Z,16.00
2023-05-06T12:34:18.669Z,16.13
2023-05-06T12:36:47.118Z,15.65
2023-05-06T12:39:14.888Z,14.23
2023-05-06T12:41:44.433Z,16.17
2023-05-06T12:44:37.975Z,16.58
2023-05-06T12:47:18.811Z,16.65
2023-05-06T12:49:47.244Z,17.42
2023-05-06T12:52:16.175Z,19.57
2023-05-06T12:54:44.064Z,18.75
2023-05-06T12:57:11.975Z,21.02
2023-05-06T12:59:39.924Z,22.63
2023-05-06T13:02:07.817Z,23.38
2023-05-06T13:04:35.455Z,24.37
2023-05-06T13:07:03.120Z,23.63
2023-05-06T13:09:31.096Z,28.02
2023-05-06T13:11:59.423Z,28.75
2023-05-06T13:14:27.007Z,30.63
2023-05-06T13:16:54.636Z,28.93
2023-05-06T13:19:32.342Z,31.58
2023-05-06T13:22:01.622Z,29.35
2023-05-06T13:24:29.915Z,32.40
2023-05-06T13:26:59.485Z,29.70
2023-05-06T13:29:27.063Z,31.00
2023-05-06T13:31:54.691Z,32.22
2023-05-06T13:34:22.241Z,30.63
2023-05-06T13:36:50.855Z,31.80
2023-05-06T13:39:18.678Z,29.77
2023-05-06T13:41:47.728Z,31.37
2023-05-06T13:44:15.272Z,32.67
2023-05-06T13:46:44.891Z,33.40
2023-05-06T13:49:16.965Z,30.60
2023-05-06T13:51:44.718Z,27.25
2023-05-06T13:54:12.348Z,27.47
2023-05-06T13:56:40.071Z,28.25
2023-05-06T13:59:10.091Z,23.65
2023-05-06T14:01:38.256Z,25.17
2023-05-06T14:04:06.395Z,22.55
2023-05-06T14:06:34.357Z,22.73
2023-05-06T14:09:02.096Z,23.35
2023-05-06T14:11:29.760Z,21.90
2023-05-06T14:13:57.539Z,23.90
2023-05-06T14:16:25.192Z,21.77
2023-05-06T14:18:52.885Z,18.50
2023-05-06T14:21:20.895Z,22.10
2023-05-06T14:23:48.398Z,19.50
2023-05-06T14:26:16.046Z,17.73
2023-05-06T14:28:43.727Z,19.13
2023-05-06T14:31:11.330Z,20.70
2023-05-06T14:33:39.039Z,18.33
2023-05-06T14:36:06.880Z,18.55
2023-05-06T14:38:34.412Z,20.77
2023-05-06T14:41:02.015Z,21.40
2023-05-06T14:43:29.597Z,20.40
2023-05-06T14:45:57.243Z,20.05
2023-05-06T14:48:25.521Z,20.63
2023-05-06T14:50:53.178Z,20.85
2023-05-06T14:53:20.783Z,19.48
2023-05-06T14:55:49.026Z,18.60
2023-05-06T14:58:16.721Z,21.15
2023-05-06T15:00:45.235Z,21.70
2023-05-06T15:03:12.854Z,21.85
2023-05-06T15:05:40.816Z,21.17
2023-05-06T15:08:10.061Z,23.10
2023-05-06T15:10:37.774Z,24.75
2023-05-06T15:13:05.642Z,25.75
2023-05-06T15:15:33.390Z,24.88
2023-05-06T15:18:00.995Z,24.17
2023-05-06T15:20:29.857Z,25.57
2023-05-06T15:22:57.676Z,22.52
2023-05-06T15:25:35.156Z,24.30
2023-05-06T15:28:05.132Z,21.23
2023-05-06T15:30:32.776Z,22.90
2023-05-06T15:33:02.451Z,22.80
2023-05-06T15:35:31.729Z,20.70
2023-05-06T15:37:59.395Z,24.00
2023-05-06T15:40:27.216Z,22.13
2023-05-06T15:42:55.244Z,19.23
2023-05-06T15:45:22.930Z,17.50
2023-05-06T15:47:50.529Z,16.27
2023-05-06T15:50:31.759Z,16.85
2023-05-06T15:53:01.608Z,15.85
2023-05-06T15:55:29.563Z,19.40
2023-05-06T15:57:59.899Z,19.57
2023-05-06T16:00:28.360Z,18.65
2023-05-06T16:02:56.071Z,17.58
2023-05-06T16:05:23.670Z,18.15
2023-05-06T16:07:51.258Z,20.13
2023-05-06T16:10:18.777Z,21.47
2023-05-06T16:12:46.329Z,20.08
2023-05-06T16:15:14.255Z,21.70
2023-05-06T16:17:41.861Z,21.10
2023-05-06T16:20:13.038Z,21.38
2023-05-06T16:22:40.940Z,20.20
2023-05-06T16:25:08.540Z,19.55
2023-05-06T16:27:36.105Z,20.13
2023-05-06T16:30:03.982Z,21.58
2023-05-06T16:32:32.619Z,23.35
2023-05-06T16:35:00.233Z,23.17
2023-05-06T16:37:29.226Z,21.90
2023-05-06T16:39:56.852Z,24.23
2023-05-06T16:42:24.555Z,26.30
2023-05-06T16:44:52.146Z,24.60
2023-05-06T16:47:24.500Z,27.53
2023-05-06T16:49:52.884Z,24.17
2023-05-06T16:52:20.615Z,26.30
2023-05-06T16:54:48.233Z,26.27
2023-05-06T16:57:15.890Z,24.23
2023-05-06T16:59:43.768Z,22.57
2023-05-06T17:02:11.503Z,22.00
2023-05-06T17:04:39.107Z,23.92
2023-05-06T17:07:06.590Z,21.77
2023-05-06T17:09:34.206Z,21.42
2023-05-06T17:12:02.569Z,18.00
2023-05-06T17:14:30.421Z,18.10
2023-05-06T17:16:59.582Z,19.92
2023-05-06T17:19:27.333Z,19.20
2023-05-06T17:21:54.814Z,15.65
2023-05-06T17:24:22.700Z,17.80
2023-05-06T17:26:50.214Z,18.30
2023-05-06T17:29:17.896Z,20.20
2023-05-06T17:31:45.481Z,20.70
2023-05-06T17:34:13.121Z,21.48
2023-05-06T17:36:40.775Z,20.50
2023-05-06T17:39:08.417Z,20.40
2023-05-06T17:41:36.263Z,17.92
2023-05-06T17:44:03.936Z,18.35
2023-05-06T17:46:31.668Z,15.57
2023-05-06T17:48:59.354Z,17.40
2023-05-06T17:51:26.984Z,16.63
2023-05-06T17:53:54.545Z,14.60
2023-05-06T17:56:23.528Z,15.48
2023-05-06T17:58:51.730Z,13.82
2023-05-06T18:01:19.391Z,11.93
2023-05-06T18:03:47.320Z,14.02
2023-05-06T18:06:14.906Z,13.10
2023-05-06T18:08:42.476Z,12.25
2023-05-06T18:11:10.001Z,10.60
2023-05-06T18:13:37.705Z,11.97
2023-05-06T18:16:05.614Z,10.70
2023-05-06T18:18:33.276Z,12.95
2023-05-06T18:21:00.837Z,12.00
2023-05-06T18:23:29.665Z,11.80
2023-05-06T18:25:57.874Z,13.30
2023-05-06T18:28:25.415Z,12.48
2023-05-06T18:30:52.975Z,11.05
2023-05-06T18:33:20.727Z,12.38
2023-05-06T18:35:48.402Z,14.63
2023-05-06T18:38:16.231Z,9.23
2023-05-06T18:40:46.826Z,9.18
2023-05-06T18:43:14.402Z,9.95
2023-05-06T18:45:42.992Z,9.57
2023-05-06T18:48:11.079Z,9.57
2023-05-06T18:50:38.756Z,8.13
2023-05-06T18:53:06.333Z,8.57
2023-05-06T18:55:33.874Z,9.30
2023-05-06T18:58:05.593Z,7.82
2023-05-06T19:00:33.397Z,7.32
2023-05-06T19:03:01.153Z,7.87
2023-05-06T19:05:28.924Z,8.48
2023-05-06T19:07:56.435Z,8.15
2023-05-06T19:10:24.045Z,9.48
2023-05-06T19:12:51.543Z,9.20
2023-05-06T19:15:19.284Z,10.13
2023-05-06T19:17:47.115Z,10.30
2023-05-06T19:20:14.792Z,10.75
2023-05-06T19:22:42.572Z,12.32
2023-05-06T19:25:10.751Z,13.35
2023-05-06T19:27:38.485Z,14.70
2023-05-06T19:30:07.389Z,13.05
2023-05-06T19:32:34.918Z,10.57
2023-05-06T19:35:09.037Z,12.30
2023-05-06T19:37:40.082Z,14.05
2023-05-06T19:40:09.109Z,14.00
2023-05-06T19:42:36.585Z,12.50
2023-05-06T19:45:08.406Z,14.38
2023-05-06T19:47:36.240Z,14.98
2023-05-06T19:50:04.886Z,12.63
2023-05-06T19:52:34.564Z,13.40
2023-05-06T19:55:03.240Z,13.70
2023-05-06T19:57:33.726Z,14.10
2023-05-06T20:00:06.038Z,15.15
2023-05-06T20:02:34.327Z,14.65
2023-05-06T20:05:01.974Z,15.37
2023-05-06T20:07:29.683Z,15.27
2023-05-06T20:09:57.309Z,14.25
2023-05-06T20:12:29.051Z,15.25
2023-05-06T20:14:56.776Z,17.10
2023-05-06T20:17:24.895Z,14.30
2023-05-06T20:19:52.556Z,16.33
2023-05-06T20:22:20.140Z,14.25
2023-05-06T20:24:47.786Z,13.90
2023-05-06T20:27:15.432Z,16.13
2023-05-06T20:29:43.027Z,16.43
2023-05-06T20:32:10.604Z,15.63
2023-05-06T20:34:38.195Z,16.40
2023-05-06T20:37:07.346Z,17.63
2023-05-06T20:39:34.994Z,15.68
2023-05-06T20:42:02.781Z,19.90
2023-05-06T20:44:30.384Z,14.38
2023-05-06T20:46:57.870Z,14.93
2023-05-06T20:49:25.539Z,15.23
2023-05-06T20:51:53.165Z,14.45
2023-05-06T20:54:20.738Z,16.07
2023-05-06T20:56:48.228Z,20.08
2023-05-06T20:59:15.809Z,16.17
2023-05-06T21:01:43.537Z,16.90
2023-05-06T21:04:11.297Z,16.33
2023-05-06T21:06:38.827Z,16.80
2023-05-06T21:09:06.902Z,17.40
2023-05-06T21:11:34.447Z,16.88
2023-05-06T21:14:02.016Z,18.42
2023-05-06T21:16:29.544Z,17.58
2023-05-06T21:18:57.158Z,17.93
2023-05-06T21:21:25.119Z,16.17
2023-05-06T21:23:52.765Z,18.08
2023-05-06T21:26:20.259Z,15.95
2023-05-06T21:28:51.915Z,16.92
2023-05-06T21:31:44.127Z,15.10
2023-05-06T21:34:11.755Z,17.67
2023-05-06T21:36:39.266Z,17.75
2023-05-06T21:39:09.915Z,17.20
2023-05-06T21:41:38.434Z,16.42
2023-05-06T21:44:08.927Z,15.73
2023-05-06T21:46:37.888Z,16.40
2023-05-06T21:49:05.875Z,18.13
2023-05-06T21:51:36.373Z,15.77
2023-05-06T21:54:04.091Z,18.70
2023-05-06T21:56:31.569Z,19.80
2023-05-06T22:03:36.269Z,19.65
2023-05-06T22:06:04.748Z,19.50
2023-05-06T22:08:34.465Z,18.75
2023-05-06T22:11:02.188Z,19.97
2023-05-06T22:13:29.905Z,19.35
2023-05-06T22:15:57.838Z,20.33
2023-05-06T22:18:25.958Z,21.08
2023-05-06T22:20:56.836Z,21.60
2023-05-06T22:23:25.560Z,18.07
2023-05-06T22:25:53.202Z,21.00
2023-05-06T22:28:20.788Z,21.27
2023-05-06T22:30:48.464Z,20.90
2023-05-06T22:33:16.136Z,20.67
2023-05-06T22:35:43.721Z,17.83
2023-05-06T22:38:11.240Z,18.88
2023-05-06T22:40:38.814Z,18.92
2023-05-06T22:43:06.373Z,20.70
2023-05-06T22:45:34.957Z,18.48
2023-05-06T22:48:02.727Z,21.10
2023-05-06T22:50:30.815Z,18.95
2023-05-06T22:52:59.184Z,18.35
2023-05-06T22:55:28.924Z,18.65
2023-05-06T22:57:57.037Z,18.85
2023-05-06T23:00:25.049Z,18.83
2023-05-06T23:02:52.747Z,19.00
2023-05-06T23:05:20.476Z,19.90
2023-05-06T23:07:48.002Z,19.77
2023-05-06T23:10:15.675Z,19.67
2023-05-06T23:12:43.308Z,18.47
2023-05-06T23:15:11.874Z,20.77
2023-05-06T23:17:39.850Z,21.25
2023-05-06T23:20:08.147Z,21.27
2023-05-06T23:22:35.778Z,19.98
2023-05-06T23:25:03.542Z,20.83
2023-05-06T23:27:31.129Z,18.33
2023-05-06T23:29:59.121Z,20.88
2023-05-06T23:32:27.256Z,18.85
2023-05-06T23:34:54.980Z,19.65
2023-05-06T23:37:22.506Z,19.13
2023-05-06T23:39:50.082Z,18.98
2023-05-06T23:42:17.548Z,20.77
2023-05-06T23:44:45.857Z,19.52
2023-05-06T23:47:13.370Z,19.52
2023-05-06T23:49:41.059Z,17.70
2023-05-06T23:52:08.985Z,19.58
2023-05-06T23:54:36.778Z,19.05
2023-05-06T23:57:04.350Z,18.77
2023-05-06T23:59:35.148Z,19.73
